sensor_id;sensor_type;location;lat;lon;timestamp;temperature;humidity
9116;DHT22;4593;53.652;10.168;2023-05-16T00:01:41;10.90;83.00
9116;DHT22;4593;53.652;10.168;2023-05-16T00:04:06;10.80;82.60
9116;DHT22;4593;53.652;10.168;2023-05-16T00:06:32;10.70;83.10
9116;DHT22;4593;53.652;10.168;2023-05-16T00:08:59;10.70;83.30
9116;DHT22;4593;53.652;10.168;2023-05-16T00:11:24;10.80;83.00
9116;DHT22;4593;53.652;10.168;2023-05-16T00:13:50;10.80;82.80
9116;DHT22;4593;53.652;10.168;2023-05-16T00:16:16;10.70;82.90
9116;DHT22;4593;53.652;10.168;2023-05-16T00:18:42;10.50;83.60
9116;DHT22;4593;53.652;10.168;2023-05-16T00:21:10;10.60;83.30
9116;DHT22;4593;53.652;10.168;2023-05-16T00:23:36;10.70;83.40
9116;DHT22;4593;53.652;10.168;2023-05-16T00:26:01;10.80;83.00
9116;DHT22;4593;53.652;10.168;2023-05-16T00:28:27;10.90;82.20
9116;DHT22;4593;53.652;10.168;2023-05-16T00:30:53;10.90;82.40
9116;DHT22;4593;53.652;10.168;2023-05-16T00:33:19;11.00;82.10
9116;DHT22;4593;53.652;10.168;2023-05-16T00:35:44;10.90;82.40
9116;DHT22;4593;53.652;10.168;2023-05-16T00:38:10;10.70;82.90
9116;DHT22;4593;53.652;10.168;2023-05-16T00:40:36;10.80;83.20
9116;DHT22;4593;53.652;10.168;2023-05-16T00:43:01;10.80;83.20
9116;DHT22;4593;53.652;10.168;2023-05-16T00:45:27;10.80;83.30
9116;DHT22;4593;53.652;10.168;2023-05-16T00:47:53;10.70;83.90
9116;DHT22;4593;53.652;10.168;2023-05-16T00:50:19;10.70;84.10
9116;DHT22;4593;53.652;10.168;2023-05-16T00:52:45;10.70;83.90
9116;DHT22;4593;53.652;10.168;2023-05-16T00:55:11;10.70;83.80
9116;DHT22;4593;53.652;10.168;2023-05-16T00:57:38;10.70;83.90
9116;DHT22;4593;53.652;10.168;2023-05-16T01:00:07;10.70;84.10
9116;DHT22;4593;53.652;10.168;2023-05-16T01:02:36;10.70;83.70
9116;DHT22;4593;53.652;10.168;2023-05-16T01:05:02;10.70;83.60
9116;DHT22;4593;53.652;10.168;2023-05-16T01:07:33;10.70;83.80
9116;DHT22;4593;53.652;10.168;2023-05-16T01:09:59;10.70;83.70
9116;DHT22;4593;53.652;10.168;2023-05-16T01:12:30;10.70;83.40
9116;DHT22;4593;53.652;10.168;2023-05-16T01:15:07;10.80;83.30
9116;DHT22;4593;53.652;10.168;2023-05-16T01:20:43;10.90;82.30
9116;DHT22;4593;53.652;10.168;2023-05-16T01:28:47;11.00;81.90
9116;DHT22;4593;53.652;10.168;2023-05-16T01:31:13;11.10;81.60
9116;DHT22;4593;53.652;10.168;2023-05-16T01:33:39;11.10;81.50
9116;DHT22;4593;53.652;10.168;2023-05-16T01:36:23;11.10;81.50
9116;DHT22;4593;53.652;10.168;2023-05-16T01:38:58;11.10;81.60
9116;DHT22;4593;53.652;10.168;2023-05-16T01:44:24;11.10;81.60
9116;DHT22;4593;53.652;10.168;2023-05-16T01:46:55;11.00;82.00
9116;DHT22;4593;53.652;10.168;2023-05-16T01:49:28;11.00;82.20
9116;DHT22;4593;53.652;10.168;2023-05-16T01:52:07;11.10;81.80
9116;DHT22;4593;53.652;10.168;2023-05-16T01:54:37;11.10;82.10
9116;DHT22;4593;53.652;10.168;2023-05-16T01:57:04;11.10;82.50
9116;DHT22;4593;53.652;10.168;2023-05-16T01:59:33;11.10;82.10
9116;DHT22;4593;53.652;10.168;2023-05-16T02:01:59;11.10;82.40
9116;DHT22;4593;53.652;10.168;2023-05-16T02:04:25;11.10;82.80
9116;DHT22;4593;53.652;10.168;2023-05-16T02:06:51;11.00;83.00
9116;DHT22;4593;53.652;10.168;2023-05-16T02:09:17;11.00;83.70
9116;DHT22;4593;53.652;10.168;2023-05-16T02:11:42;10.90;83.80
9116;DHT22;4593;53.652;10.168;2023-05-16T02:14:08;10.80;84.10
9116;DHT22;4593;53.652;10.168;2023-05-16T02:16:35;10.80;83.10
9116;DHT22;4593;53.652;10.168;2023-05-16T02:19:01;10.80;83.40
9116;DHT22;4593;53.652;10.168;2023-05-16T02:21:26;10.80;83.60
9116;DHT22;4593;53.652;10.168;2023-05-16T02:23:52;10.80;82.80
9116;DHT22;4593;53.652;10.168;2023-05-16T02:26:18;10.70;82.80
9116;DHT22;4593;53.652;10.168;2023-05-16T02:28:44;10.70;83.10
9116;DHT22;4593;53.652;10.168;2023-05-16T02:31:10;10.80;82.50
9116;DHT22;4593;53.652;10.168;2023-05-16T02:33:35;10.70;82.60
9116;DHT22;4593;53.652;10.168;2023-05-16T02:36:01;10.80;82.50
9116;DHT22;4593;53.652;10.168;2023-05-16T02:38:27;10.80;82.40
9116;DHT22;4593;53.652;10.168;2023-05-16T02:40:52;10.80;81.90
9116;DHT22;4593;53.652;10.168;2023-05-16T02:43:18;10.80;81.60
9116;DHT22;4593;53.652;10.168;2023-05-16T02:45:43;10.60;81.90
9116;DHT22;4593;53.652;10.168;2023-05-16T02:48:09;10.70;82.00
9116;DHT22;4593;53.652;10.168;2023-05-16T02:50:36;10.60;81.90
9116;DHT22;4593;53.652;10.168;2023-05-16T02:53:04;10.60;81.30
9116;DHT22;4593;53.652;10.168;2023-05-16T02:55:30;10.60;81.20
9116;DHT22;4593;53.652;10.168;2023-05-16T02:57:55;10.50;81.10
9116;DHT22;4593;53.652;10.168;2023-05-16T03:00:21;10.50;81.30
9116;DHT22;4593;53.652;10.168;2023-05-16T03:02:47;10.60;81.00
9116;DHT22;4593;53.652;10.168;2023-05-16T03:05:13;10.60;80.80
9116;DHT22;4593;53.652;10.168;2023-05-16T03:07:39;10.60;80.40
9116;DHT22;4593;53.652;10.168;2023-05-16T03:10:06;10.50;80.70
9116;DHT22;4593;53.652;10.168;2023-05-16T03:12:31;10.50;80.70
9116;DHT22;4593;53.652;10.168;2023-05-16T03:14:57;10.50;80.20
9116;DHT22;4593;53.652;10.168;2023-05-16T03:17:23;10.50;80.30
9116;DHT22;4593;53.652;10.168;2023-05-16T03:19:48;10.50;80.30
9116;DHT22;4593;53.652;10.168;2023-05-16T03:22:14;10.50;80.20
9116;DHT22;4593;53.652;10.168;2023-05-16T03:24:40;10.50;80.10
9116;DHT22;4593;53.652;10.168;2023-05-16T03:27:05;10.40;80.60
9116;DHT22;4593;53.652;10.168;2023-05-16T03:29:32;10.40;80.60
9116;DHT22;4593;53.652;10.168;2023-05-16T03:31:58;10.40;80.70
9116;DHT22;4593;53.652;10.168;2023-05-16T03:34:23;10.50;80.70
9116;DHT22;4593;53.652;10.168;2023-05-16T03:36:49;10.50;80.80
9116;DHT22;4593;53.652;10.168;2023-05-16T03:39:16;10.50;81.40
9116;DHT22;4593;53.652;10.168;2023-05-16T03:41:43;10.50;81.40
9116;DHT22;4593;53.652;10.168;2023-05-16T03:44:09;10.50;81.50
9116;DHT22;4593;53.652;10.168;2023-05-16T03:46:35;10.50;81.70
9116;DHT22;4593;53.652;10.168;2023-05-16T03:49:01;10.50;81.60
9116;DHT22;4593;53.652;10.168;2023-05-16T03:51:27;10.40;81.30
9116;DHT22;4593;53.652;10.168;2023-05-16T03:53:53;10.30;81.20
9116;DHT22;4593;53.652;10.168;2023-05-16T03:56:19;10.30;81.30
9116;DHT22;4593;53.652;10.168;2023-05-16T03:58:46;10.30;81.10
9116;DHT22;4593;53.652;10.168;2023-05-16T04:01:12;10.20;79.90
9116;DHT22;4593;53.652;10.168;2023-05-16T04:03:38;10.20;80.20
9116;DHT22;4593;53.652;10.168;2023-05-16T04:06:03;10.20;80.20
9116;DHT22;4593;53.652;10.168;2023-05-16T04:08:29;10.30;79.50
9116;DHT22;4593;53.652;10.168;2023-05-16T04:10:56;10.20;79.40
9116;DHT22;4593;53.652;10.168;2023-05-16T04:13:21;10.30;79.30
9116;DHT22;4593;53.652;10.168;2023-05-16T04:15:47;10.40;78.90
9116;DHT22;4593;53.652;10.168;2023-05-16T04:18:13;10.40;78.90
9116;DHT22;4593;53.652;10.168;2023-05-16T04:20:41;10.30;78.90
9116;DHT22;4593;53.652;10.168;2023-05-16T04:23:07;10.20;79.50
9116;DHT22;4593;53.652;10.168;2023-05-16T04:25:33;10.30;79.50
9116;DHT22;4593;53.652;10.168;2023-05-16T04:27:58;10.40;79.50
9116;DHT22;4593;53.652;10.168;2023-05-16T04:30:24;10.40;78.60
9116;DHT22;4593;53.652;10.168;2023-05-16T04:32:50;10.30;78.80
9116;DHT22;4593;53.652;10.168;2023-05-16T04:35:15;10.20;78.70
9116;DHT22;4593;53.652;10.168;2023-05-16T04:37:41;10.10;79.30
9116;DHT22;4593;53.652;10.168;2023-05-16T04:40:07;10.10;79.20
9116;DHT22;4593;53.652;10.168;2023-05-16T04:42:34;10.10;79.10
9116;DHT22;4593;53.652;10.168;2023-05-16T04:44:59;10.00;79.20
9116;DHT22;4593;53.652;10.168;2023-05-16T04:47:25;10.10;79.20
9116;DHT22;4593;53.652;10.168;2023-05-16T04:49:51;10.20;78.40
9116;DHT22;4593;53.652;10.168;2023-05-16T04:52:17;10.20;78.60
9116;DHT22;4593;53.652;10.168;2023-05-16T04:54:43;10.40;77.90
9116;DHT22;4593;53.652;10.168;2023-05-16T04:57:08;10.30;77.80
9116;DHT22;4593;53.652;10.168;2023-05-16T04:59:34;10.30;77.40
9116;DHT22;4593;53.652;10.168;2023-05-16T05:02:00;10.40;76.90
9116;DHT22;4593;53.652;10.168;2023-05-16T05:04:25;10.30;76.30
9116;DHT22;4593;53.652;10.168;2023-05-16T05:06:51;10.20;76.50
9116;DHT22;4593;53.652;10.168;2023-05-16T05:09:17;10.20;76.30
9116;DHT22;4593;53.652;10.168;2023-05-16T05:11:42;10.20;75.90
9116;DHT22;4593;53.652;10.168;2023-05-16T05:14:08;9.90;75.20
9116;DHT22;4593;53.652;10.168;2023-05-16T05:16:33;9.90;75.40
9116;DHT22;4593;53.652;10.168;2023-05-16T05:18:59;9.90;75.40
9116;DHT22;4593;53.652;10.168;2023-05-16T05:21:25;9.90;75.20
9116;DHT22;4593;53.652;10.168;2023-05-16T05:23:51;10.00;74.80
9116;DHT22;4593;53.652;10.168;2023-05-16T05:26:17;9.90;74.20
9116;DHT22;4593;53.652;10.168;2023-05-16T05:28:43;9.90;74.30
9116;DHT22;4593;53.652;10.168;2023-05-16T05:31:08;9.90;73.40
9116;DHT22;4593;53.652;10.168;2023-05-16T05:33:34;10.00;73.20
9116;DHT22;4593;53.652;10.168;2023-05-16T05:36:00;10.10;72.70
9116;DHT22;4593;53.652;10.168;2023-05-16T05:38:25;10.20;72.30
9116;DHT22;4593;53.652;10.168;2023-05-16T05:40:51;10.20;71.80
9116;DHT22;4593;53.652;10.168;2023-05-16T05:43:17;10.20;72.00
9116;DHT22;4593;53.652;10.168;2023-05-16T05:45:43;10.40;71.90
9116;DHT22;4593;53.652;10.168;2023-05-16T05:48:09;10.50;70.90
9116;DHT22;4593;53.652;10.168;2023-05-16T05:50:36;10.60;70.30
9116;DHT22;4593;53.652;10.168;2023-05-16T05:53:02;10.90;70.00
9116;DHT22;4593;53.652;10.168;2023-05-16T05:55:28;10.80;68.30
9116;DHT22;4593;53.652;10.168;2023-05-16T05:57:53;10.90;68.40
9116;DHT22;4593;53.652;10.168;2023-05-16T06:00:19;11.30;67.60
9116;DHT22;4593;53.652;10.168;2023-05-16T06:02:45;11.50;66.20
9116;DHT22;4593;53.652;10.168;2023-05-16T06:05:11;11.50;66.40
9116;DHT22;4593;53.652;10.168;2023-05-16T06:07:37;11.40;66.40
9116;DHT22;4593;53.652;10.168;2023-05-16T06:10:03;11.40;66.80
9116;DHT22;4593;53.652;10.168;2023-05-16T06:12:30;11.40;66.50
9116;DHT22;4593;53.652;10.168;2023-05-16T06:14:56;11.50;67.10
9116;DHT22;4593;53.652;10.168;2023-05-16T06:17:21;11.20;67.00
9116;DHT22;4593;53.652;10.168;2023-05-16T06:19:47;11.10;67.40
9116;DHT22;4593;53.652;10.168;2023-05-16T06:22:13;11.20;67.80
9116;DHT22;4593;53.652;10.168;2023-05-16T06:24:39;11.30;67.20
9116;DHT22;4593;53.652;10.168;2023-05-16T06:27:05;11.20;67.10
9116;DHT22;4593;53.652;10.168;2023-05-16T06:29:31;11.50;67.30
9116;DHT22;4593;53.652;10.168;2023-05-16T06:31:57;11.90;66.40
9116;DHT22;4593;53.652;10.168;2023-05-16T06:34:22;11.60;63.70
9116;DHT22;4593;53.652;10.168;2023-05-16T06:36:52;11.30;64.40
9116;DHT22;4593;53.652;10.168;2023-05-16T06:39:18;11.30;64.90
9116;DHT22;4593;53.652;10.168;2023-05-16T06:41:44;11.30;64.60
9116;DHT22;4593;53.652;10.168;2023-05-16T06:44:10;11.40;65.00
9116;DHT22;4593;53.652;10.168;2023-05-16T06:46:36;11.80;64.10
9116;DHT22;4593;53.652;10.168;2023-05-16T06:49:03;12.10;61.60
9116;DHT22;4593;53.652;10.168;2023-05-16T06:51:29;12.40;60.20
9116;DHT22;4593;53.652;10.168;2023-05-16T06:53:55;12.30;59.30
9116;DHT22;4593;53.652;10.168;2023-05-16T06:56:21;12.50;58.60
9116;DHT22;4593;53.652;10.168;2023-05-16T06:58:48;12.70;58.10
9116;DHT22;4593;53.652;10.168;2023-05-16T07:01:14;12.90;57.80
9116;DHT22;4593;53.652;10.168;2023-05-16T07:03:40;12.90;58.00
9116;DHT22;4593;53.652;10.168;2023-05-16T07:06:06;13.00;58.90
9116;DHT22;4593;53.652;10.168;2023-05-16T07:08:31;12.80;58.70
9116;DHT22;4593;53.652;10.168;2023-05-16T07:10:57;12.70;59.90
9116;DHT22;4593;53.652;10.168;2023-05-16T07:13:23;12.90;60.00
9116;DHT22;4593;53.652;10.168;2023-05-16T07:15:48;12.80;60.40
9116;DHT22;4593;53.652;10.168;2023-05-16T07:18:14;13.00;60.10
9116;DHT22;4593;53.652;10.168;2023-05-16T07:20:40;13.20;60.40
9116;DHT22;4593;53.652;10.168;2023-05-16T07:23:05;12.80;60.60
9116;DHT22;4593;53.652;10.168;2023-05-16T07:25:31;12.70;61.30
9116;DHT22;4593;53.652;10.168;2023-05-16T07:27:57;13.00;61.10
9116;DHT22;4593;53.652;10.168;2023-05-16T07:30:23;13.30;59.80
9116;DHT22;4593;53.652;10.168;2023-05-16T07:32:48;13.20;59.40
9116;DHT22;4593;53.652;10.168;2023-05-16T07:35:14;12.90;59.80
9116;DHT22;4593;53.652;10.168;2023-05-16T07:37:40;12.80;58.40
9116;DHT22;4593;53.652;10.168;2023-05-16T07:40:08;13.00;58.00
9116;DHT22;4593;53.652;10.168;2023-05-16T07:42:34;12.90;58.40
9116;DHT22;4593;53.652;10.168;2023-05-16T07:45:00;13.40;57.60
9116;DHT22;4593;53.652;10.168;2023-05-16T07:47:27;13.70;56.70
9116;DHT22;4593;53.652;10.168;2023-05-16T07:49:52;13.80;55.90
9116;DHT22;4593;53.652;10.168;2023-05-16T07:52:18;13.70;57.60
9116;DHT22;4593;53.652;10.168;2023-05-16T07:54:45;13.70;55.30
9116;DHT22;4593;53.652;10.168;2023-05-16T07:57:12;13.40;54.60
9116;DHT22;4593;53.652;10.168;2023-05-16T07:59:38;13.30;54.90
9116;DHT22;4593;53.652;10.168;2023-05-16T08:02:03;13.30;55.00
9116;DHT22;4593;53.652;10.168;2023-05-16T08:04:29;13.70;57.00
9116;DHT22;4593;53.652;10.168;2023-05-16T08:06:55;14.20;52.80
9116;DHT22;4593;53.652;10.168;2023-05-16T08:09:21;14.50;51.40
9116;DHT22;4593;53.652;10.168;2023-05-16T08:11:46;14.60;49.80
9116;DHT22;4593;53.652;10.168;2023-05-16T08:14:12;14.50;48.80
9116;DHT22;4593;53.652;10.168;2023-05-16T08:16:37;14.40;50.00
9116;DHT22;4593;53.652;10.168;2023-05-16T08:19:03;14.50;48.70
9116;DHT22;4593;53.652;10.168;2023-05-16T08:21:29;14.60;47.10
9116;DHT22;4593;53.652;10.168;2023-05-16T08:23:56;14.40;47.00
9116;DHT22;4593;53.652;10.168;2023-05-16T08:26:22;14.20;47.80
9116;DHT22;4593;53.652;10.168;2023-05-16T08:28:47;14.60;49.80
9116;DHT22;4593;53.652;10.168;2023-05-16T08:31:14;14.40;47.40
9116;DHT22;4593;53.652;10.168;2023-05-16T08:33:40;14.70;47.80
9116;DHT22;4593;53.652;10.168;2023-05-16T08:36:06;15.00;49.20
9116;DHT22;4593;53.652;10.168;2023-05-16T08:38:32;15.20;47.30
9116;DHT22;4593;53.652;10.168;2023-05-16T08:40:57;15.00;46.90
9116;DHT22;4593;53.652;10.168;2023-05-16T08:43:23;14.80;46.70
9116;DHT22;4593;53.652;10.168;2023-05-16T08:45:49;14.20;47.20
9116;DHT22;4593;53.652;10.168;2023-05-16T08:48:15;13.70;48.80
9116;DHT22;4593;53.652;10.168;2023-05-16T08:50:43;13.60;49.70
9116;DHT22;4593;53.652;10.168;2023-05-16T08:53:09;13.80;50.50
9116;DHT22;4593;53.652;10.168;2023-05-16T08:55:37;14.30;50.40
9116;DHT22;4593;53.652;10.168;2023-05-16T08:58:03;14.60;48.50
9116;DHT22;4593;53.652;10.168;2023-05-16T09:00:29;15.00;47.70
9116;DHT22;4593;53.652;10.168;2023-05-16T09:02:56;15.00;46.50
9116;DHT22;4593;53.652;10.168;2023-05-16T09:05:22;14.80;45.20
9116;DHT22;4593;53.652;10.168;2023-05-16T09:07:48;14.30;44.30
9116;DHT22;4593;53.652;10.168;2023-05-16T09:10:14;14.20;45.90
9116;DHT22;4593;53.652;10.168;2023-05-16T09:12:41;14.10;45.80
9116;DHT22;4593;53.652;10.168;2023-05-16T09:15:08;14.00;47.70
9116;DHT22;4593;53.652;10.168;2023-05-16T09:17:36;14.80;49.00
9116;DHT22;4593;53.652;10.168;2023-05-16T09:20:16;15.80;46.40
9116;DHT22;4593;53.652;10.168;2023-05-16T09:22:55;15.60;46.10
9116;DHT22;4593;53.652;10.168;2023-05-16T09:25:22;15.80;47.10
9116;DHT22;4593;53.652;10.168;2023-05-16T09:27:55;15.90;47.30
9116;DHT22;4593;53.652;10.168;2023-05-16T09:30:31;16.00;48.30
9116;DHT22;4593;53.652;10.168;2023-05-16T09:32:58;16.00;45.00
9116;DHT22;4593;53.652;10.168;2023-05-16T09:35:24;15.40;43.30
9116;DHT22;4593;53.652;10.168;2023-05-16T09:37:50;14.90;45.30
9116;DHT22;4593;53.652;10.168;2023-05-16T09:40:21;14.90;45.40
9116;DHT22;4593;53.652;10.168;2023-05-16T09:42:47;14.60;45.80
9116;DHT22;4593;53.652;10.168;2023-05-16T09:45:18;14.60;47.70
9116;DHT22;4593;53.652;10.168;2023-05-16T09:47:44;14.20;48.10
9116;DHT22;4593;53.652;10.168;2023-05-16T09:50:13;13.80;49.30
9116;DHT22;4593;53.652;10.168;2023-05-16T09:52:39;13.90;49.60
9116;DHT22;4593;53.652;10.168;2023-05-16T09:55:09;14.10;49.90
9116;DHT22;4593;53.652;10.168;2023-05-16T09:57:38;14.70;48.60
9116;DHT22;4593;53.652;10.168;2023-05-16T10:00:10;15.10;47.90
9116;DHT22;4593;53.652;10.168;2023-05-16T10:02:40;15.40;45.80
9116;DHT22;4593;53.652;10.168;2023-05-16T10:05:06;16.00;43.10
9116;DHT22;4593;53.652;10.168;2023-05-16T10:07:33;15.80;42.50
9116;DHT22;4593;53.652;10.168;2023-05-16T10:10:05;15.90;43.30
9116;DHT22;4593;53.652;10.168;2023-05-16T10:12:32;16.10;44.20
9116;DHT22;4593;53.652;10.168;2023-05-16T10:15:03;16.30;43.40
9116;DHT22;4593;53.652;10.168;2023-05-16T10:17:33;15.40;45.60
9116;DHT22;4593;53.652;10.168;2023-05-16T10:20:06;14.60;47.40
9116;DHT22;4593;53.652;10.168;2023-05-16T10:22:37;14.10;49.20
9116;DHT22;4593;53.652;10.168;2023-05-16T10:27:41;14.10;48.80
9116;DHT22;4593;53.652;10.168;2023-05-16T10:30:07;14.30;48.30
9116;DHT22;4593;53.652;10.168;2023-05-16T10:32:35;14.70;46.10
9116;DHT22;4593;53.652;10.168;2023-05-16T10:35:02;14.90;46.80
9116;DHT22;4593;53.652;10.168;2023-05-16T10:37:30;14.80;45.40
9116;DHT22;4593;53.652;10.168;2023-05-16T10:39:56;14.30;47.80
9116;DHT22;4593;53.652;10.168;2023-05-16T10:42:23;13.80;48.90
9116;DHT22;4593;53.652;10.168;2023-05-16T10:44:53;13.40;50.20
9116;DHT22;4593;53.652;10.168;2023-05-16T10:47:19;13.60;50.80
9116;DHT22;4593;53.652;10.168;2023-05-16T10:49:45;14.10;51.00
9116;DHT22;4593;53.652;10.168;2023-05-16T10:52:12;14.50;49.00
9116;DHT22;4593;53.652;10.168;2023-05-16T10:54:50;15.00;46.60
9116;DHT22;4593;53.652;10.168;2023-05-16T10:57:23;15.20;47.80
9116;DHT22;4593;53.652;10.168;2023-05-16T10:59:50;15.60;46.40
9116;DHT22;4593;53.652;10.168;2023-05-16T11:04:51;16.20;44.50
9116;DHT22;4593;53.652;10.168;2023-05-16T11:07:18;15.90;45.90
9116;DHT22;4593;53.652;10.168;2023-05-16T11:09:49;14.90;51.70
9116;DHT22;4593;53.652;10.168;2023-05-16T11:12:19;13.50;55.60
9116;DHT22;4593;53.652;10.168;2023-05-16T11:14:50;12.90;58.60
9116;DHT22;4593;53.652;10.168;2023-05-16T11:17:23;13.00;59.60
9116;DHT22;4593;53.652;10.168;2023-05-16T11:19:51;13.10;59.40
9116;DHT22;4593;53.652;10.168;2023-05-16T11:22:21;13.10;59.10
9116;DHT22;4593;53.652;10.168;2023-05-16T11:27:31;13.20;58.70
9116;DHT22;4593;53.652;10.168;2023-05-16T11:30:13;13.70;60.50
9116;DHT22;4593;53.652;10.168;2023-05-16T11:32:41;13.80;56.80
9116;DHT22;4593;53.652;10.168;2023-05-16T11:35:09;13.80;55.20
9116;DHT22;4593;53.652;10.168;2023-05-16T11:37:36;14.10;55.00
9116;DHT22;4593;53.652;10.168;2023-05-16T11:40:03;14.20;53.90
9116;DHT22;4593;53.652;10.168;2023-05-16T11:42:29;14.40;52.60
9116;DHT22;4593;53.652;10.168;2023-05-16T11:45:24;13.90;52.70
9116;DHT22;4593;53.652;10.168;2023-05-16T11:47:50;14.00;52.20
9116;DHT22;4593;53.652;10.168;2023-05-16T11:50:20;14.00;53.40
9116;DHT22;4593;53.652;10.168;2023-05-16T11:52:49;14.50;52.20
9116;DHT22;4593;53.652;10.168;2023-05-16T11:55:26;14.70;51.20
9116;DHT22;4593;53.652;10.168;2023-05-16T11:57:53;14.90;49.60
9116;DHT22;4593;53.652;10.168;2023-05-16T12:00:20;15.20;49.50
9116;DHT22;4593;53.652;10.168;2023-05-16T12:02:48;15.20;48.30
9116;DHT22;4593;53.652;10.168;2023-05-16T12:05:14;15.20;48.00
9116;DHT22;4593;53.652;10.168;2023-05-16T12:07:44;15.10;46.60
9116;DHT22;4593;53.652;10.168;2023-05-16T12:10:14;14.70;47.00
9116;DHT22;4593;53.652;10.168;2023-05-16T12:12:44;14.60;47.80
9116;DHT22;4593;53.652;10.168;2023-05-16T12:15:10;14.50;48.10
9116;DHT22;4593;53.652;10.168;2023-05-16T12:17:38;14.60;48.60
9116;DHT22;4593;53.652;10.168;2023-05-16T12:20:05;14.70;49.10
9116;DHT22;4593;53.652;10.168;2023-05-16T12:22:34;14.30;47.90
9116;DHT22;4593;53.652;10.168;2023-05-16T12:27:56;13.60;48.90
9116;DHT22;4593;53.652;10.168;2023-05-16T12:30:26;13.40;49.20
9116;DHT22;4593;53.652;10.168;2023-05-16T12:33:03;13.60;49.90
9116;DHT22;4593;53.652;10.168;2023-05-16T12:35:33;13.90;50.70
9116;DHT22;4593;53.652;10.168;2023-05-16T12:38:03;14.00;50.00
9116;DHT22;4593;53.652;10.168;2023-05-16T12:40:29;13.90;50.00
9116;DHT22;4593;53.652;10.168;2023-05-16T12:42:55;13.80;50.80
9116;DHT22;4593;53.652;10.168;2023-05-16T12:45:21;13.70;51.80
9116;DHT22;4593;53.652;10.168;2023-05-16T12:47:48;13.60;50.30
9116;DHT22;4593;53.652;10.168;2023-05-16T12:50:14;13.70;51.40
9116;DHT22;4593;53.652;10.168;2023-05-16T12:52:51;13.70;52.10
9116;DHT22;4593;53.652;10.168;2023-05-16T12:55:17;13.80;52.80
9116;DHT22;4593;53.652;10.168;2023-05-16T12:57:44;14.00;52.80
9116;DHT22;4593;53.652;10.168;2023-05-16T13:00:12;13.70;53.80
9116;DHT22;4593;53.652;10.168;2023-05-16T13:02:39;13.30;55.70
9116;DHT22;4593;53.652;10.168;2023-05-16T13:05:05;13.60;56.30
9116;DHT22;4593;53.652;10.168;2023-05-16T13:07:35;14.20;56.40
9116;DHT22;4593;53.652;10.168;2023-05-16T13:10:01;14.10;54.40
9116;DHT22;4593;53.652;10.168;2023-05-16T13:12:27;13.90;55.80
9116;DHT22;4593;53.652;10.168;2023-05-16T13:14:53;13.90;54.80
9116;DHT22;4593;53.652;10.168;2023-05-16T13:17:18;13.90;54.30
9116;DHT22;4593;53.652;10.168;2023-05-16T13:19:44;14.10;52.90
9116;DHT22;4593;53.652;10.168;2023-05-16T13:22:10;13.80;51.00
9116;DHT22;4593;53.652;10.168;2023-05-16T13:24:35;13.40;51.30
9116;DHT22;4593;53.652;10.168;2023-05-16T13:27:01;13.30;52.30
9116;DHT22;4593;53.652;10.168;2023-05-16T13:29:27;13.50;53.00
9116;DHT22;4593;53.652;10.168;2023-05-16T13:31:53;13.60;51.20
9116;DHT22;4593;53.652;10.168;2023-05-16T13:34:18;13.30;50.00
9116;DHT22;4593;53.652;10.168;2023-05-16T13:36:44;12.80;52.00
9116;DHT22;4593;53.652;10.168;2023-05-16T13:39:12;12.70;52.60
9116;DHT22;4593;53.652;10.168;2023-05-16T13:41:37;12.90;53.20
9116;DHT22;4593;53.652;10.168;2023-05-16T13:44:05;13.30;52.60
9116;DHT22;4593;53.652;10.168;2023-05-16T13:46:31;13.40;50.50
9116;DHT22;4593;53.652;10.168;2023-05-16T13:48:56;13.60;48.90
9116;DHT22;4593;53.652;10.168;2023-05-16T13:51:22;13.40;48.20
9116;DHT22;4593;53.652;10.168;2023-05-16T13:53:48;13.40;49.00
9116;DHT22;4593;53.652;10.168;2023-05-16T13:56:13;13.00;49.50
9116;DHT22;4593;53.652;10.168;2023-05-16T13:58:39;12.70;51.00
9116;DHT22;4593;53.652;10.168;2023-05-16T14:01:05;12.80;52.50
9116;DHT22;4593;53.652;10.168;2023-05-16T14:03:30;13.10;53.10
9116;DHT22;4593;53.652;10.168;2023-05-16T14:05:56;13.30;52.00
9116;DHT22;4593;53.652;10.168;2023-05-16T14:08:22;13.20;52.60
9116;DHT22;4593;53.652;10.168;2023-05-16T14:10:48;12.90;53.10
9116;DHT22;4593;53.652;10.168;2023-05-16T14:13:13;12.60;53.60
9116;DHT22;4593;53.652;10.168;2023-05-16T14:15:39;12.70;54.20
9116;DHT22;4593;53.652;10.168;2023-05-16T14:18:05;12.80;54.00
9116;DHT22;4593;53.652;10.168;2023-05-16T14:20:31;12.90;54.90
9116;DHT22;4593;53.652;10.168;2023-05-16T14:22:57;13.20;54.90
9116;DHT22;4593;53.652;10.168;2023-05-16T14:25:23;13.50;54.60
9116;DHT22;4593;53.652;10.168;2023-05-16T14:27:49;13.60;53.90
9116;DHT22;4593;53.652;10.168;2023-05-16T14:30:15;13.50;53.80
9116;DHT22;4593;53.652;10.168;2023-05-16T14:32:41;13.60;54.40
9116;DHT22;4593;53.652;10.168;2023-05-16T14:35:07;13.60;54.60
9116;DHT22;4593;53.652;10.168;2023-05-16T14:37:36;13.50;55.10
9116;DHT22;4593;53.652;10.168;2023-05-16T14:40:02;13.40;55.80
9116;DHT22;4593;53.652;10.168;2023-05-16T14:42:29;13.40;54.40
9116;DHT22;4593;53.652;10.168;2023-05-16T14:44:55;13.30;54.50
9116;DHT22;4593;53.652;10.168;2023-05-16T14:47:22;13.20;54.40
9116;DHT22;4593;53.652;10.168;2023-05-16T14:49:47;13.20;53.80
9116;DHT22;4593;53.652;10.168;2023-05-16T14:52:13;13.50;51.70
9116;DHT22;4593;53.652;10.168;2023-05-16T14:54:39;13.90;50.70
9116;DHT22;4593;53.652;10.168;2023-05-16T14:57:04;14.30;50.10
9116;DHT22;4593;53.652;10.168;2023-05-16T14:59:31;14.50;49.60
9116;DHT22;4593;53.652;10.168;2023-05-16T15:01:56;14.40;47.90
9116;DHT22;4593;53.652;10.168;2023-05-16T15:04:22;14.50;48.30
9116;DHT22;4593;53.652;10.168;2023-05-16T15:06:48;14.80;47.90
9116;DHT22;4593;53.652;10.168;2023-05-16T15:09:14;15.30;45.50
9116;DHT22;4593;53.652;10.168;2023-05-16T15:11:40;15.30;45.00
9116;DHT22;4593;53.652;10.168;2023-05-16T15:14:05;15.40;45.60
9116;DHT22;4593;53.652;10.168;2023-05-16T15:16:31;15.00;45.10
9116;DHT22;4593;53.652;10.168;2023-05-16T15:18:57;14.70;46.80
9116;DHT22;4593;53.652;10.168;2023-05-16T15:21:22;14.60;48.30
9116;DHT22;4593;53.652;10.168;2023-05-16T15:23:48;14.60;48.50
9116;DHT22;4593;53.652;10.168;2023-05-16T15:26:15;14.60;49.20
9116;DHT22;4593;53.652;10.168;2023-05-16T15:28:41;14.70;49.10
9116;DHT22;4593;53.652;10.168;2023-05-16T15:31:07;14.70;48.60
9116;DHT22;4593;53.652;10.168;2023-05-16T15:33:33;14.90;48.60
9116;DHT22;4593;53.652;10.168;2023-05-16T15:35:58;14.80;50.60
9116;DHT22;4593;53.652;10.168;2023-05-16T15:38:24;14.40;52.10
9116;DHT22;4593;53.652;10.168;2023-05-16T15:40:50;14.40;52.90
9116;DHT22;4593;53.652;10.168;2023-05-16T15:43:16;13.90;53.50
9116;DHT22;4593;53.652;10.168;2023-05-16T15:45:45;13.90;53.90
9116;DHT22;4593;53.652;10.168;2023-05-16T15:48:11;13.30;55.60
9116;DHT22;4593;53.652;10.168;2023-05-16T15:50:37;13.30;57.80
9116;DHT22;4593;53.652;10.168;2023-05-16T15:53:03;13.10;59.30
9116;DHT22;4593;53.652;10.168;2023-05-16T15:55:28;12.80;59.90
9116;DHT22;4593;53.652;10.168;2023-05-16T15:57:55;12.70;62.90
9116;DHT22;4593;53.652;10.168;2023-05-16T16:00:23;12.70;66.40
9116;DHT22;4593;53.652;10.168;2023-05-16T16:02:49;12.10;67.90
9116;DHT22;4593;53.652;10.168;2023-05-16T16:05:15;12.00;71.50
9116;DHT22;4593;53.652;10.168;2023-05-16T16:07:40;12.00;70.30